Time;durP1;ratioP1;P1;durP2;ratioP2;P2;SDS_P1;SDS_P2;PMS_P1;PMS_P2;Temp;Humidity;BMP_temperature;BMP_pressure;BME280_temperature;BME280_humidity;BME280_pressure;Samples;Min_cycle;Max_cycle;Signal;HPM_P1;HPM_P2
2023/05/25 00:00:14;;;;;;;22.03;11.63;;;8.40;99.90;;;;;;5091494;28;20206;-77
2023/05/25 00:02:43;;;;;;;22.57;11.27;;;8.40;99.90;;;;;;5102954;28;20202;-77
2023/05/25 00:05:10;;;;;;;20.27;10.63;;;8.30;99.90;;;;;;5088540;28;20249;-79
2023/05/25 00:07:37;;;;;;;24.43;11.07;;;8.20;99.90;;;;;;5087127;28;20687;-79
2023/05/25 00:10:05;;;;;;;23.00;12.30;;;8.10;99.90;;;;;;5082480;28;20280;-76
2023/05/25 00:12:32;;;;;;;20.07;10.87;;;8.10;99.90;;;;;;5087172;28;20229;-77
2023/05/25 00:15:00;;;;;;;21.23;11.67;;;8.10;99.90;;;;;;5091512;28;20756;-79
2023/05/25 00:17:28;;;;;;;20.57;10.90;;;8.00;99.90;;;;;;5093559;28;20289;-78
2023/05/25 00:19:56;;;;;;;23.90;12.07;;;8.00;99.90;;;;;;5102619;28;20299;-77
2023/05/25 00:22:23;;;;;;;26.03;13.47;;;8.20;99.90;;;;;;5103674;28;20195;-79
2023/05/25 00:24:50;;;;;;;23.60;11.67;;;8.30;99.90;;;;;;5104297;28;20255;-79
2023/05/25 00:27:17;;;;;;;22.50;11.93;;;8.20;99.90;;;;;;5103470;28;20225;-76
2023/05/25 00:29:44;;;;;;;20.70;13.23;;;8.00;99.90;;;;;;5089522;28;20645;-79
2023/05/25 00:32:12;;;;;;;24.00;12.73;;;7.90;99.90;;;;;;5086837;28;20202;-78
2023/05/25 00:34:39;;;;;;;23.17;12.23;;;8.00;99.90;;;;;;5085620;28;20222;-79
2023/05/25 00:37:05;;;;;;;25.03;13.00;;;8.00;99.90;;;;;;5086700;28;20568;-77
2023/05/25 00:39:32;;;;;;;28.13;12.43;;;8.10;99.90;;;;;;5085856;28;20202;-77
2023/05/25 00:42:00;;;;;;;24.20;12.97;;;7.90;99.90;;;;;;5095579;28;20198;-78
2023/05/25 00:44:27;;;;;;;25.30;12.77;;;8.00;99.90;;;;;;5084477;28;20227;-77
2023/05/25 00:46:54;;;;;;;24.33;11.43;;;7.90;99.90;;;;;;5099355;28;20221;-77
2023/05/25 00:49:22;;;;;;;23.17;12.23;;;7.90;99.90;;;;;;5096728;28;20194;-78
2023/05/25 00:51:52;;;;;;;23.20;13.00;;;7.70;99.90;;;;;;5086970;28;20208;-80
2023/05/25 00:54:19;;;;;;;26.77;13.40;;;7.90;99.90;;;;;;5083500;28;20236;-78
2023/05/25 00:56:47;;;;;;;23.67;14.23;;;7.90;99.90;;;;;;5093168;28;20599;-77
2023/05/25 00:59:20;;;;;;;23.80;14.07;;;7.90;99.90;;;;;;5083616;28;20209;-76
2023/05/25 01:01:48;;;;;;;22.80;13.37;;;7.90;99.90;;;;;;5098439;28;20202;-79
2023/05/25 01:04:18;;;;;;;25.03;14.50;;;7.80;99.90;;;;;;5092756;28;20228;-78
2023/05/25 01:06:48;;;;;;;24.23;13.40;;;7.80;99.90;;;;;;5095200;28;20198;-78
2023/05/25 01:09:19;;;;;;;24.23;12.90;;;7.70;99.90;;;;;;5087204;28;20202;-77
2023/05/25 01:11:50;;;;;;;25.33;14.40;;;7.80;99.90;;;;;;5094625;28;20584;-78
2023/05/25 01:14:19;;;;;;;22.87;13.97;;;7.70;99.90;;;;;;5098430;28;20306;-77
2023/05/25 01:16:46;;;;;;;23.93;12.97;;;7.70;99.90;;;;;;5095091;28;20217;-78
2023/05/25 01:19:13;;;;;;;21.93;12.17;;;7.80;99.90;;;;;;5102366;28;20692;-77
2023/05/25 01:21:44;;;;;;;24.13;12.53;;;7.60;99.90;;;;;;5102855;28;20216;-77
2023/05/25 01:24:21;;;;;;;23.93;14.07;;;7.50;99.90;;;;;;5102585;28;20217;-76
2023/05/25 01:26:54;;;;;;;25.37;13.00;;;7.70;99.90;;;;;;5095862;28;20213;-77
2023/05/25 01:29:22;;;;;;;25.30;13.23;;;7.80;99.90;;;;;;5082785;28;20215;-78
2023/05/25 01:31:50;;;;;;;25.23;13.33;;;7.70;99.90;;;;;;5083300;28;20963;-77
2023/05/25 01:34:18;;;;;;;22.53;11.87;;;7.70;99.90;;;;;;5083115;28;20250;-80
2023/05/25 01:36:46;;;;;;;25.07;13.20;;;7.70;99.90;;;;;;5098000;28;20225;-77
2023/05/25 01:39:13;;;;;;;25.10;13.67;;;7.70;99.90;;;;;;5100579;28;20208;-77
2023/05/25 01:41:39;;;;;;;26.47;12.50;;;7.80;99.90;;;;;;5097715;28;20215;-78
2023/05/25 01:44:07;;;;;;;25.63;13.23;;;7.80;99.90;;;;;;5083083;28;20230;-76
2023/05/25 01:46:37;;;;;;;22.50;13.77;;;7.50;99.90;;;;;;5083488;28;20203;-77
2023/05/25 01:49:15;;;;;;;27.70;13.97;;;7.60;99.90;;;;;;5091641;28;20198;-76
2023/05/25 01:51:54;;;;;;;26.13;14.07;;;7.60;99.90;;;;;;5090493;28;20198;-76
2023/05/25 01:54:22;;;;;;;22.80;13.57;;;7.60;99.90;;;;;;5101753;28;20221;-76
2023/05/25 01:56:52;;;;;;;23.03;12.97;;;7.60;99.90;;;;;;5096156;28;20221;-78
2023/05/25 01:59:21;;;;;;;25.60;14.17;;;7.50;99.90;;;;;;5095889;28;20195;-76
2023/05/25 02:01:50;;;;;;;23.63;13.87;;;7.40;99.90;;;;;;5084485;28;20198;-79
2023/05/25 02:04:18;;;;;;;25.60;12.43;;;7.40;99.90;;;;;;5088508;28;20218;-77
2023/05/25 02:06:48;;;;;;;25.37;12.67;;;7.30;99.90;;;;;;5098031;28;20201;-76
2023/05/25 02:09:16;;;;;;;21.53;12.50;;;7.40;99.90;;;;;;5092578;28;20205;-76
2023/05/25 02:11:43;;;;;;;25.27;14.23;;;7.30;99.90;;;;;;5098966;28;20285;-76
2023/05/25 02:14:10;;;;;;;24.87;14.03;;;7.30;99.90;;;;;;5089953;28;20309;-76
2023/05/25 02:16:37;;;;;;;28.57;12.73;;;7.20;99.90;;;;;;5081130;28;20228;-78
2023/05/25 02:19:04;;;;;;;26.90;12.17;;;7.10;99.90;;;;;;5088951;28;20207;-76
2023/05/25 02:21:31;;;;;;;24.90;14.40;;;7.10;99.90;;;;;;5082759;28;20198;-78
2023/05/25 02:23:58;;;;;;;26.33;14.20;;;7.00;99.90;;;;;;5083759;28;20218;-77
2023/05/25 02:26:26;;;;;;;22.07;11.87;;;7.10;99.90;;;;;;5086383;28;20202;-79
2023/05/25 02:28:53;;;;;;;40.13;21.30;;;7.20;99.90;;;;;;5082268;28;20576;-78
2023/05/25 02:31:28;;;;;;;28.23;15.93;;;7.10;99.90;;;;;;5084545;28;20214;-79
2023/05/25 02:33:56;;;;;;;28.43;14.97;;;7.20;99.90;;;;;;5084071;28;20234;-79
2023/05/25 02:36:23;;;;;;;22.43;13.83;;;7.20;99.90;;;;;;5085628;28;20198;-76
2023/05/25 02:38:50;;;;;;;27.60;13.87;;;7.20;99.90;;;;;;5090076;28;20666;-77
2023/05/25 02:41:19;;;;;;;24.03;13.40;;;7.30;99.90;;;;;;5088173;28;20210;-76
2023/05/25 02:43:47;;;;;;;26.27;13.53;;;7.40;99.90;;;;;;5091370;28;20589;-76
2023/05/25 02:46:14;;;;;;;25.10;13.27;;;7.30;99.90;;;;;;5088283;28;20642;-78
2023/05/25 02:48:42;;;;;;;22.43;12.83;;;7.20;99.90;;;;;;5083791;28;20202;-77
2023/05/25 02:51:08;;;;;;;22.23;14.23;;;7.20;99.90;;;;;;5085624;28;20207;-79
2023/05/25 02:53:36;;;;;;;23.27;13.50;;;7.30;99.90;;;;;;5085013;28;20736;-76
2023/05/25 02:56:03;;;;;;;23.67;13.67;;;7.30;99.90;;;;;;5084712;28;20248;-77
2023/05/25 02:58:31;;;;;;;23.20;12.63;;;7.30;99.90;;;;;;5084730;28;20237;-78
2023/05/25 03:00:59;;;;;;;24.63;13.33;;;7.40;99.90;;;;;;5083022;28;20277;-76
2023/05/25 03:03:26;;;;;;;25.37;14.17;;;7.40;99.90;;;;;;5083604;28;20243;-77
2023/05/25 03:05:53;;;;;;;23.43;12.43;;;7.60;99.90;;;;;;5083281;28;20270;-77
2023/05/25 03:08:20;;;;;;;26.37;11.87;;;7.60;99.90;;;;;;5083117;28;20204;-76
2023/05/25 03:10:47;;;;;;;24.23;12.50;;;7.70;99.90;;;;;;5083151;28;20293;-79
2023/05/25 03:13:13;;;;;;;25.20;13.80;;;7.70;99.90;;;;;;5082417;28;20325;-78
2023/05/25 03:15:40;;;;;;;23.50;12.23;;;7.80;99.90;;;;;;5083996;28;20202;-77
2023/05/25 03:18:08;;;;;;;22.80;13.37;;;7.80;99.90;;;;;;5087115;28;20492;-77
2023/05/25 03:20:35;;;;;;;24.03;14.03;;;7.70;99.90;;;;;;5100647;28;20642;-78
2023/05/25 03:23:02;;;;;;;24.07;13.03;;;7.70;99.90;;;;;;5086976;28;20585;-76
2023/05/25 03:25:29;;;;;;;22.40;12.80;;;7.80;99.90;;;;;;5095387;28;20206;-78
2023/05/25 03:27:56;;;;;;;23.27;12.57;;;7.90;99.90;;;;;;5098641;28;20208;-76
2023/05/25 03:30:23;;;;;;;27.60;14.87;;;7.80;99.90;;;;;;5082443;28;20285;-78
2023/05/25 03:32:51;;;;;;;27.17;14.10;;;7.90;99.90;;;;;;5080248;28;20214;-79
2023/05/25 03:35:19;;;;;;;22.53;11.50;;;7.90;99.90;;;;;;5080677;28;20238;-79
2023/05/25 03:37:46;;;;;;;27.37;11.67;;;7.90;99.90;;;;;;5080723;28;20281;-79
2023/05/25 03:40:13;;;;;;;23.27;11.80;;;8.10;99.90;;;;;;5080851;28;20300;-78
2023/05/25 03:42:40;;;;;;;22.97;12.80;;;7.90;99.90;;;;;;5080977;28;20208;-77
2023/05/25 03:45:08;;;;;;;22.47;10.80;;;8.00;99.90;;;;;;5080863;28;20276;-80
2023/05/25 03:47:35;;;;;;;21.93;12.87;;;8.10;99.90;;;;;;5081755;28;20198;-77
2023/05/25 03:50:02;;;;;;;22.03;12.10;;;8.10;99.90;;;;;;5081482;28;20649;-77
2023/05/25 03:52:30;;;;;;;22.83;13.50;;;8.20;99.90;;;;;;5081162;28;20212;-78
2023/05/25 03:54:57;;;;;;;25.80;12.33;;;8.10;99.90;;;;;;5081771;28;20329;-78
2023/05/25 03:57:24;;;;;;;25.03;13.20;;;8.20;99.90;;;;;;5083185;28;20294;-79
2023/05/25 03:59:50;;;;;;;25.10;12.30;;;8.20;99.90;;;;;;5082070;28;20206;-80
2023/05/25 04:02:17;;;;;;;22.50;12.07;;;8.20;99.90;;;;;;5083080;28;20206;-80
2023/05/25 04:04:44;;;;;;;24.77;11.87;;;8.20;99.90;;;;;;5083389;28;20222;-77
2023/05/25 04:07:11;;;;;;;21.10;13.20;;;8.10;99.90;;;;;;5082669;28;20566;-79
2023/05/25 04:09:39;;;;;;;21.07;11.33;;;8.10;99.90;;;;;;5081742;28;20306;-79
2023/05/25 04:12:06;;;;;;;22.17;11.00;;;8.20;99.90;;;;;;5084032;28;20220;-77
2023/05/25 04:14:33;;;;;;;25.37;12.60;;;8.10;99.90;;;;;;5098206;28;20249;-79
2023/05/25 04:17:00;;;;;;;24.67;12.33;;;8.40;99.90;;;;;;5093880;28;20582;-79
2023/05/25 04:19:27;;;;;;;23.60;12.30;;;8.20;99.90;;;;;;5091722;28;20207;-79
2023/05/25 04:21:54;;;;;;;24.70;11.93;;;8.20;99.90;;;;;;5097205;28;20653;-79
2023/05/25 04:24:21;;;;;;;22.00;11.80;;;8.30;99.90;;;;;;5092396;28;20253;-76
2023/05/25 04:26:50;;;;;;;22.50;12.03;;;8.20;99.90;;;;;;5101250;28;20214;-78
2023/05/25 04:29:17;;;;;;;21.00;13.03;;;8.20;99.90;;;;;;5102636;28;20197;-76
2023/05/25 04:31:44;;;;;;;21.90;11.63;;;8.40;99.90;;;;;;5101619;28;20214;-77
2023/05/25 04:34:13;;;;;;;24.13;11.37;;;8.30;99.90;;;;;;5100494;28;20229;-76
2023/05/25 04:36:41;;;;;;;23.53;11.53;;;8.40;99.90;;;;;;5101144;28;20669;-77
2023/05/25 04:39:08;;;;;;;28.13;12.43;;;8.40;99.90;;;;;;5101353;28;20225;-78
2023/05/25 04:41:36;;;;;;;24.00;11.53;;;8.50;99.90;;;;;;5101024;28;20209;-76
2023/05/25 04:44:04;;;;;;;21.13;12.30;;;8.40;99.90;;;;;;5100805;28;20229;-80
2023/05/25 04:46:35;;;;;;;24.63;11.60;;;8.40;99.90;;;;;;5099789;28;20689;-80
2023/05/25 04:49:03;;;;;;;25.70;12.73;;;8.50;99.90;;;;;;5099870;28;20326;-79
2023/05/25 04:51:31;;;;;;;21.73;11.83;;;8.40;99.90;;;;;;5097836;28;20695;-79
2023/05/25 04:53:58;;;;;;;25.10;12.00;;;8.50;99.90;;;;;;5079914;28;20480;-80
2023/05/25 04:56:25;;;;;;;20.63;12.63;;;8.60;99.90;;;;;;5090678;28;20205;-78
2023/05/25 04:58:52;;;;;;;26.23;11.90;;;8.70;99.90;;;;;;5093367;28;20263;-76
2023/05/25 05:01:20;;;;;;;21.77;11.90;;;8.80;99.90;;;;;;5101626;28;20215;-79
2023/05/25 05:03:47;;;;;;;24.10;11.93;;;8.70;99.90;;;;;;5096211;28;20597;-79
2023/05/25 05:06:14;;;;;;;24.40;12.57;;;8.70;99.90;;;;;;5087584;28;20649;-80
2023/05/25 05:08:41;;;;;;;21.50;11.47;;;8.90;99.90;;;;;;5095694;28;20208;-79
2023/05/25 05:11:08;;;;;;;22.40;11.60;;;8.70;99.90;;;;;;5095095;28;20268;-78
2023/05/25 05:13:35;;;;;;;21.67;11.67;;;8.90;99.90;;;;;;5100008;28;20724;-77
2023/05/25 05:16:01;;;;;;;23.47;12.53;;;8.90;99.90;;;;;;5087320;28;20205;-79
2023/05/25 05:18:30;;;;;;;23.63;11.27;;;9.00;99.90;;;;;;5088213;28;20712;-78
2023/05/25 05:20:56;;;;;;;24.10;12.27;;;9.00;99.90;;;;;;5094412;28;20197;-78
2023/05/25 05:23:23;;;;;;;22.60;11.80;;;9.10;99.90;;;;;;5100723;28;20303;-78
2023/05/25 05:25:50;;;;;;;26.27;13.43;;;9.20;99.90;;;;;;5102531;28;20210;-76
2023/05/25 05:28:17;;;;;;;24.27;12.10;;;9.20;99.90;;;;;;5102881;28;20202;-78
2023/05/25 05:30:45;;;;;;;20.17;10.87;;;9.10;99.90;;;;;;5102811;28;20653;-77
2023/05/25 05:33:12;;;;;;;22.00;12.37;;;9.30;99.90;;;;;;5102172;28;20632;-79
2023/05/25 05:35:40;;;;;;;21.27;11.57;;;9.20;99.90;;;;;;5102635;28;20205;-79
2023/05/25 05:38:07;;;;;;;23.13;12.00;;;9.30;99.90;;;;;;5102127;28;20244;-79
2023/05/25 05:40:34;;;;;;;29.00;14.33;;;9.50;99.90;;;;;;5100938;28;20217;-77
2023/05/25 05:43:00;;;;;;;23.43;12.20;;;9.50;99.90;;;;;;5100620;28;20224;-76
2023/05/25 05:45:27;;;;;;;22.13;11.47;;;9.50;99.90;;;;;;5101624;28;20201;-79
2023/05/25 05:47:54;;;;;;;20.53;11.10;;;9.50;99.90;;;;;;5101290;28;20207;-77
2023/05/25 05:50:21;;;;;;;23.50;12.97;;;9.50;99.90;;;;;;5099895;28;20205;-79
2023/05/25 05:52:50;;;;;;;21.90;11.40;;;9.60;99.90;;;;;;5100477;28;20206;-76
2023/05/25 05:55:17;;;;;;;23.10;11.90;;;9.70;99.90;;;;;;5100239;28;20257;-79
2023/05/25 05:57:43;;;;;;;23.60;10.73;;;9.80;99.90;;;;;;5101156;28;20205;-79
2023/05/25 06:00:12;;;;;;;24.93;10.23;;;9.80;99.90;;;;;;5101121;28;20287;-79
2023/05/25 06:02:38;;;;;;;18.90;10.10;;;9.90;99.90;;;;;;5101219;28;20208;-78
2023/05/25 06:05:06;;;;;;;20.63;9.63;;;9.70;99.90;;;;;;5100885;28;20217;-77
2023/05/25 06:07:34;;;;;;;19.23;9.70;;;9.70;99.90;;;;;;5092522;28;20237;-76
2023/05/25 06:10:02;;;;;;;20.10;9.63;;;9.80;99.90;;;;;;5084263;28;20305;-78
2023/05/25 06:12:29;;;;;;;18.33;9.20;;;10.00;99.90;;;;;;5093877;28;20721;-77
2023/05/25 06:14:55;;;;;;;19.97;9.73;;;10.00;99.90;;;;;;5102323;28;20236;-77
2023/05/25 06:17:23;;;;;;;17.20;9.37;;;10.20;99.90;;;;;;5104590;28;20568;-78
2023/05/25 06:19:50;;;;;;;19.97;9.73;;;10.30;99.90;;;;;;5104933;28;20225;-80
2023/05/25 06:22:17;;;;;;;20.90;9.93;;;10.20;99.90;;;;;;5089583;28;20569;-80
2023/05/25 06:24:44;;;;;;;19.00;10.00;;;10.10;99.90;;;;;;5106052;28;20221;-79
2023/05/25 06:27:12;;;;;;;19.50;10.80;;;10.20;99.90;;;;;;5104893;28;20228;-78
2023/05/25 06:29:39;;;;;;;20.50;10.33;;;10.10;99.90;;;;;;5105272;28;20261;-79
2023/05/25 06:32:06;;;;;;;28.17;11.27;;;10.10;99.90;;;;;;5104510;28;20630;-77
2023/05/25 06:34:33;;;;;;;22.07;12.07;;;10.20;99.90;;;;;;5104302;28;20232;-79
2023/05/25 06:37:00;;;;;;;20.27;11.50;;;10.20;99.90;;;;;;5104800;28;20201;-80
2023/05/25 06:39:27;;;;;;;21.50;11.20;;;10.20;99.90;;;;;;5086630;28;20222;-80
2023/05/25 06:41:54;;;;;;;23.20;11.33;;;10.20;99.90;;;;;;5101560;28;20273;-80
2023/05/25 06:44:22;;;;;;;24.60;12.33;;;10.30;99.90;;;;;;5104089;28;20236;-78
2023/05/25 06:46:49;;;;;;;24.67;11.87;;;10.30;99.90;;;;;;5102665;28;20255;-78
2023/05/25 06:49:16;;;;;;;29.53;11.70;;;10.30;99.90;;;;;;5103294;28;20201;-78
2023/05/25 06:51:42;;;;;;;23.53;12.10;;;10.30;99.90;;;;;;5103123;28;20237;-78
2023/05/25 06:54:10;;;;;;;24.13;12.27;;;10.30;99.90;;;;;;5102346;28;20228;-78
2023/05/25 06:56:37;;;;;;;25.10;11.93;;;10.40;99.90;;;;;;5102909;28;20209;-77
2023/05/25 06:59:04;;;;;;;22.23;11.97;;;10.50;99.90;;;;;;5101366;28;20232;-78
2023/05/25 07:01:32;;;;;;;22.27;11.27;;;10.60;99.90;;;;;;5104212;28;20213;-79
2023/05/25 07:03:59;;;;;;;23.77;12.13;;;10.70;99.90;;;;;;5105036;28;20280;-78
2023/05/25 07:06:26;;;;;;;25.47;13.07;;;10.50;99.90;;;;;;5091513;28;20270;-79
2023/05/25 07:08:54;;;;;;;21.63;11.70;;;10.60;99.90;;;;;;5103273;28;20208;-78
2023/05/25 07:11:22;;;;;;;28.27;12.80;;;10.50;99.90;;;;;;5104495;28;20831;-78
2023/05/25 07:13:48;;;;;;;25.67;12.70;;;10.60;99.90;;;;;;5103999;28;20275;-80
2023/05/25 07:16:15;;;;;;;24.23;12.87;;;10.70;99.90;;;;;;5103283;28;20224;-80
2023/05/25 07:18:43;;;;;;;24.90;13.80;;;10.70;99.90;;;;;;5102746;28;20315;-78
2023/05/25 07:21:11;;;;;;;22.07;12.13;;;10.70;99.90;;;;;;5102994;28;20265;-77
2023/05/25 07:23:39;;;;;;;23.87;12.80;;;10.70;99.90;;;;;;5104334;28;20222;-77
2023/05/25 07:26:06;;;;;;;22.93;12.50;;;10.80;99.90;;;;;;5103206;28;20206;-77
2023/05/25 07:28:32;;;;;;;26.50;13.63;;;11.00;99.90;;;;;;5103068;28;20204;-78
2023/05/25 07:31:00;;;;;;;25.83;13.83;;;10.90;99.90;;;;;;5101897;28;20926;-80
2023/05/25 07:33:27;;;;;;;27.50;14.30;;;11.10;99.90;;;;;;5100528;28;20228;-79
2023/05/25 07:35:55;;;;;;;24.80;12.33;;;11.20;99.90;;;;;;5102263;28;20289;-80
2023/05/25 07:38:21;;;;;;;25.23;13.90;;;11.20;99.90;;;;;;5101629;28;20216;-80
2023/05/25 07:40:49;;;;;;;26.23;11.70;;;11.20;99.90;;;;;;5104053;28;20296;-80
2023/05/25 07:43:16;;;;;;;20.80;11.97;;;11.40;99.90;;;;;;5103111;28;20225;-80
2023/05/25 07:45:43;;;;;;;25.67;12.80;;;11.40;99.90;;;;;;5104131;28;20289;-77
2023/05/25 07:48:10;;;;;;;22.63;12.30;;;11.40;99.90;;;;;;5102318;28;20207;-78
2023/05/25 07:50:36;;;;;;;23.53;12.07;;;11.40;99.90;;;;;;5095164;28;20208;-78
2023/05/25 07:53:05;;;;;;;23.20;12.90;;;11.20;99.90;;;;;;5088709;28;20201;-77
2023/05/25 07:55:31;;;;;;;24.97;14.40;;;11.30;99.90;;;;;;5088441;28;20294;-77
2023/05/25 07:57:58;;;;;;;26.53;13.37;;;11.40;99.90;;;;;;5104169;28;20292;-80
2023/05/25 08:00:25;;;;;;;23.77;12.13;;;11.40;99.90;;;;;;5103783;28;20711;-79
2023/05/25 08:02:52;;;;;;;21.43;11.73;;;11.30;99.90;;;;;;5103098;28;20213;-78
2023/05/25 08:05:19;;;;;;;26.43;12.00;;;11.60;99.90;;;;;;5103426;28;20236;-79
2023/05/25 08:07:45;;;;;;;22.93;11.33;;;11.80;99.90;;;;;;5101696;28;20201;-79
2023/05/25 08:10:14;;;;;;;21.37;10.83;;;11.60;99.90;;;;;;5101726;28;20470;-78
2023/05/25 08:12:40;;;;;;;20.90;11.53;;;11.70;99.90;;;;;;5100698;28;20269;-78
2023/05/25 08:15:08;;;;;;;20.67;11.30;;;11.90;99.90;;;;;;5099882;28;20221;-80
2023/05/25 08:17:34;;;;;;;21.90;12.00;;;12.10;99.90;;;;;;5101774;28;20223;-79
2023/05/25 08:20:04;;;;;;;18.93;10.93;;;12.10;99.90;;;;;;5100908;28;20237;-79
2023/05/25 08:22:30;;;;;;;21.00;10.97;;;12.10;99.90;;;;;;5090003;28;20661;-77
2023/05/25 08:24:57;;;;;;;20.00;10.63;;;12.00;99.90;;;;;;5086581;28;20214;-78
2023/05/25 08:27:25;;;;;;;20.67;10.97;;;12.10;99.90;;;;;;5095163;28;20206;-79
2023/05/25 08:29:52;;;;;;;21.97;11.47;;;12.00;99.90;;;;;;5099287;28;20308;-79
2023/05/25 08:32:19;;;;;;;22.07;10.83;;;11.90;99.90;;;;;;5099328;28;20197;-77
2023/05/25 08:34:46;;;;;;;19.43;10.97;;;12.00;99.90;;;;;;5100151;28;20240;-78
2023/05/25 08:37:12;;;;;;;17.23;9.70;;;12.40;99.90;;;;;;5100333;28;20206;-80
2023/05/25 08:39:39;;;;;;;20.50;10.10;;;12.50;99.90;;;;;;5099034;28;20217;-78
2023/05/25 08:42:07;;;;;;;19.87;10.00;;;12.50;99.90;;;;;;5098813;28;20728;-79
2023/05/25 08:44:35;;;;;;;16.17;9.17;;;12.40;99.90;;;;;;5098462;28;20217;-77
2023/05/25 08:47:06;;;;;;;18.47;10.07;;;12.40;99.90;;;;;;5099794;28;20208;-78
2023/05/25 08:49:36;;;;;;;20.10;10.43;;;12.40;99.90;;;;;;5098820;28;20198;-80
2023/05/25 08:52:04;;;;;;;20.47;10.70;;;12.40;99.90;;;;;;5099044;28;20205;-79
2023/05/25 08:54:34;;;;;;;17.57;9.93;;;12.70;99.90;;;;;;5100221;28;20218;-78
2023/05/25 08:57:07;;;;;;;19.87;9.40;;;12.70;99.90;;;;;;5100626;28;20206;-77
2023/05/25 08:59:42;;;;;;;19.57;10.30;;;12.70;99.90;;;;;;5100161;28;20220;-77
2023/05/25 09:02:21;;;;;;;17.37;10.43;;;12.70;99.90;;;;;;5099778;28;20232;-77
2023/05/25 09:04:48;;;;;;;21.33;9.90;;;12.80;99.90;;;;;;5100285;28;20221;-78
2023/05/25 09:07:15;;;;;;;20.10;10.27;;;12.80;99.90;;;;;;5099841;28;20202;-77
2023/05/25 09:09:43;;;;;;;18.80;9.33;;;12.70;99.90;;;;;;5099804;28;20201;-79
2023/05/25 09:12:10;;;;;;;20.90;10.40;;;12.90;99.90;;;;;;5098834;28;20224;-77
2023/05/25 09:14:44;;;;;;;20.10;10.40;;;12.80;99.90;;;;;;5099949;28;20571;-78
2023/05/25 09:17:12;;;;;;;21.77;10.43;;;12.60;99.90;;;;;;5100357;28;20209;-77
2023/05/25 09:19:39;;;;;;;26.33;10.93;;;12.70;99.90;;;;;;5100073;28;20762;-77
2023/05/25 09:22:06;;;;;;;20.33;10.20;;;12.80;99.90;;;;;;5100472;28;20217;-80
2023/05/25 09:24:34;;;;;;;23.20;10.80;;;12.90;99.90;;;;;;5099776;28;20581;-80
2023/05/25 09:27:02;;;;;;;20.07;10.73;;;12.90;99.90;;;;;;5103389;28;20201;-80
2023/05/25 09:29:31;;;;;;;21.87;10.90;;;12.80;99.90;;;;;;5101119;28;20198;-79
2023/05/25 09:32:00;;;;;;;19.73;11.47;;;12.90;99.90;;;;;;5100282;28;20240;-78
2023/05/25 09:34:32;;;;;;;21.07;10.90;;;12.70;99.90;;;;;;5099324;28;20225;-78
2023/05/25 09:36:59;;;;;;;22.07;11.23;;;12.90;99.90;;;;;;5099309;28;20712;-78
2023/05/25 09:39:26;;;;;;;24.47;12.63;;;13.00;99.90;;;;;;5098846;28;20231;-80
2023/05/25 09:41:53;;;;;;;23.00;12.60;;;12.90;99.90;;;;;;5100493;28;20205;-80
2023/05/25 09:44:20;;;;;;;19.77;11.20;;;13.00;99.90;;;;;;5102201;28;20228;-77
2023/05/25 09:46:47;;;;;;;22.27;10.77;;;13.00;99.90;;;;;;5104007;28;20215;-79
2023/05/25 09:49:16;;;;;;;20.40;9.97;;;13.30;99.90;;;;;;5104250;28;20202;-78
2023/05/25 09:51:43;;;;;;;16.37;9.60;;;13.20;99.90;;;;;;5105207;28;20205;-78
2023/05/25 09:54:11;;;;;;;16.60;9.17;;;13.40;99.90;;;;;;5103598;28;20232;-77
2023/05/25 09:56:38;;;;;;;15.97;8.57;;;13.50;99.90;;;;;;5103656;28;20204;-77
2023/05/25 09:59:04;;;;;;;17.60;9.03;;;13.40;99.90;;;;;;5103159;28;20225;-76
2023/05/25 10:01:32;;;;;;;14.40;8.47;;;13.60;99.90;;;;;;5103435;28;20265;-77
2023/05/25 10:04:00;;;;;;;18.73;9.30;;;13.60;99.90;;;;;;5104077;28;20225;-78
2023/05/25 10:06:28;;;;;;;19.80;9.10;;;13.80;99.90;;;;;;5101534;28;20220;-76
2023/05/25 10:08:57;;;;;;;17.93;8.07;;;13.70;99.90;;;;;;5100776;28;20202;-77
2023/05/25 10:11:25;;;;;;;15.97;8.03;;;14.00;99.90;;;;;;5102624;28;20231;-77
2023/05/25 10:13:53;;;;;;;18.73;8.37;;;13.90;99.90;;;;;;5102763;28;20257;-77
2023/05/25 10:16:24;;;;;;;15.40;8.10;;;14.20;99.90;;;;;;5100740;28;20207;-76
2023/05/25 10:18:55;;;;;;;13.90;8.17;;;14.60;99.90;;;;;;5103214;28;20206;-76
2023/05/25 10:21:25;;;;;;;19.70;8.37;;;14.60;99.90;;;;;;5101334;28;20200;-77
2023/05/25 10:24:01;;;;;;;18.53;8.33;;;14.80;99.90;;;;;;5102080;28;20217;-77
2023/05/25 10:26:29;;;;;;;18.53;8.67;;;14.60;99.90;;;;;;5089833;28;20197;-76
2023/05/25 10:29:00;;;;;;;19.67;8.27;;;14.90;99.90;;;;;;5091055;28;20205;-77
2023/05/25 10:31:28;;;;;;;18.93;9.33;;;14.90;99.90;;;;;;5083093;28;20278;-77
2023/05/25 10:33:56;;;;;;;15.73;8.48;;;14.90;99.90;;;;;;5099958;28;20209;-77
2023/05/25 10:36:23;;;;;;;16.93;8.50;;;14.90;99.90;;;;;;5101291;28;20274;-78
2023/05/25 10:38:53;;;;;;;14.20;7.50;;;15.10;99.90;;;;;;5084480;28;20198;-76
2023/05/25 10:41:20;;;;;;;19.90;8.73;;;15.30;99.90;;;;;;5103330;28;20232;-77
2023/05/25 10:43:48;;;;;;;12.95;7.72;;;15.30;99.90;;;;;;5100096;28;20278;-78
2023/05/25 10:46:16;;;;;;;14.90;8.23;;;15.40;99.90;;;;;;5101471;28;20212;-77
2023/05/25 10:48:46;;;;;;;10.98;6.80;;;15.70;99.90;;;;;;5101559;28;20229;-77
2023/05/25 10:51:14;;;;;;;9.23;6.47;;;15.90;99.90;;;;;;5106307;28;20213;-78
2023/05/25 10:53:44;;;;;;;11.90;7.38;;;15.50;99.90;;;;;;5103692;28;20267;-77
2023/05/25 10:56:13;;;;;;;14.23;7.38;;;15.60;99.90;;;;;;5107592;28;20618;-77
2023/05/25 10:58:42;;;;;;;13.60;6.60;;;15.60;99.90;;;;;;5106711;28;20203;-78
2023/05/25 11:01:11;;;;;;;13.18;6.63;;;16.20;99.90;;;;;;5105973;28;20221;-76
2023/05/25 11:03:57;;;;;;;11.93;6.43;;;16.20;99.90;;;;;;5105216;28;20588;-76
2023/05/25 11:07:15;;;;;;;11.35;6.47;;;16.20;99.90;;;;;;5106268;28;20201;-77
2023/05/25 11:09:45;;;;;;;13.27;6.38;;;16.10;99.90;;;;;;5042702;28;20565;-77
2023/05/25 11:12:23;;;;;;;14.00;6.90;;;16.00;99.90;;;;;;5043460;28;20214;-79
2023/05/25 11:15:09;;;;;;;11.95;7.28;;;16.00;99.90;;;;;;5079226;28;20218;-77
2023/05/25 11:17:45;;;;;;;11.05;6.85;;;15.60;99.90;;;;;;5107170;28;20201;-78
2023/05/25 11:20:22;;;;;;;12.60;7.38;;;15.40;99.90;;;;;;5104872;28;20221;-77
2023/05/25 11:22:50;;;;;;;13.48;7.55;;;15.60;99.90;;;;;;5095003;28;20198;-77
2023/05/25 11:25:36;;;;;;;15.93;8.32;;;15.90;99.90;;;;;;5105457;28;20218;-79
2023/05/25 11:28:05;;;;;;;15.65;7.63;;;15.60;99.90;;;;;;5105741;28;20225;-78
2023/05/25 11:30:32;;;;;;;15.38;7.85;;;15.70;99.90;;;;;;5105392;28;20194;-78
2023/05/25 11:33:02;;;;;;;11.32;6.78;;;15.60;99.90;;;;;;5105434;28;20229;-77
2023/05/25 11:35:29;;;;;;;11.02;6.93;;;15.50;99.90;;;;;;5104509;28;20197;-76
2023/05/25 11:37:55;;;;;;;10.88;7.43;;;15.60;99.90;;;;;;5105434;28;20213;-78
2023/05/25 11:40:23;;;;;;;14.02;7.55;;;15.80;99.90;;;;;;5105176;28;20221;-76
2023/05/25 11:42:52;;;;;;;16.90;7.40;;;16.10;99.90;;;;;;5101752;28;20203;-78
2023/05/25 11:45:25;;;;;;;11.95;7.45;;;15.80;99.90;;;;;;5086254;28;20225;-76
2023/05/25 11:47:52;;;;;;;13.45;7.45;;;15.70;99.90;;;;;;5086545;28;20199;-76
2023/05/25 11:50:18;;;;;;;14.10;7.70;;;15.70;99.90;;;;;;5095641;28;20216;-78
2023/05/25 11:52:45;;;;;;;11.80;6.63;;;16.00;99.90;;;;;;5101553;28;20208;-78
2023/05/25 11:55:13;;;;;;;13.85;7.07;;;16.10;99.90;;;;;;5100174;28;20227;-78
2023/05/25 11:57:41;;;;;;;11.43;6.38;;;16.20;99.90;;;;;;5099819;28;20216;-77
2023/05/25 12:02:39;;;;;;;8.82;5.38;;;15.70;99.90;;;;;;5123914;27;20211;-81
2023/05/25 12:05:07;;;;;;;10.35;6.30;;;15.90;99.90;;;;;;5108544;28;20693;-80
2023/05/25 12:07:35;;;;;;;10.32;5.70;;;16.00;99.90;;;;;;5115593;28;20197;-81
2023/05/25 12:10:06;;;;;;;10.88;6.05;;;16.00;99.90;;;;;;5108097;28;20339;-82
2023/05/25 12:12:41;;;;;;;13.32;6.07;;;16.00;99.90;;;;;;5107088;28;20299;-81
2023/05/25 12:15:10;;;;;;;10.13;5.30;;;16.30;99.90;;;;;;5107370;28;20262;-83
2023/05/25 12:17:41;;;;;;;10.55;5.72;;;16.10;99.90;;;;;;5156257;22;20229;-78
2023/05/25 12:20:09;;;;;;;12.57;5.72;;;15.80;99.90;;;;;;5153320;27;20215;-77
2023/05/25 12:22:37;;;;;;;11.50;5.70;;;15.70;99.90;;;;;;5158267;27;20252;-76
2023/05/25 12:25:06;;;;;;;13.18;5.70;;;15.80;99.90;;;;;;5148515;27;20223;-78
2023/05/25 12:27:32;;;;;;;10.60;5.88;;;15.90;99.90;;;;;;5152583;27;20276;-76
2023/05/25 12:29:59;;;;;;;9.43;5.60;;;15.90;99.90;;;;;;5155931;27;20654;-78
2023/05/25 12:32:26;;;;;;;10.95;5.70;;;15.90;99.90;;;;;;5154669;27;20283;-75
2023/05/25 12:35:04;;;;;;;13.20;5.50;;;15.90;99.90;;;;;;5148115;27;20235;-77
2023/05/25 12:37:30;;;;;;;11.75;5.28;;;15.90;99.90;;;;;;5151309;27;20208;-78
2023/05/25 12:39:57;;;;;;;9.25;4.90;;;16.10;99.90;;;;;;5150272;27;20318;-78
2023/05/25 12:42:26;;;;;;;9.85;5.88;;;16.30;99.90;;;;;;5139518;27;20205;-79